sensor_id;sensor_type;location;lat;lon;timestamp;pressure;altitude;pressure_sealevel;temperature;humidity
73551;BME280;61816;53.582;10.096;2022-08-01T00:02:15;100995.94;;;18.85;91.19
73551;BME280;61816;53.582;10.096;2022-08-01T00:04:40;101000.16;;;19.07;89.72
73551;BME280;61816;53.582;10.096;2022-08-01T00:07:05;101002.25;;;18.92;90.33
73551;BME280;61816;53.582;10.096;2022-08-01T00:09:31;101007.31;;;18.88;90.37
73551;BME280;61816;53.582;10.096;2022-08-01T00:11:57;101000.53;;;18.78;90.63
73551;BME280;61816;53.582;10.096;2022-08-01T00:14:22;100998.84;;;18.77;91.18
73551;BME280;61816;53.582;10.096;2022-08-01T00:16:48;101002.66;;;18.76;90.45
73551;BME280;61816;53.582;10.096;2022-08-01T00:19:13;101000.97;;;18.75;91.30
73551;BME280;61816;53.582;10.096;2022-08-01T00:21:39;100998.03;;;18.96;89.70
73551;BME280;61816;53.582;10.096;2022-08-01T00:24:04;100998.03;;;19.03;89.20
73551;BME280;61816;53.582;10.096;2022-08-01T00:26:30;101002.66;;;18.89;89.77
73551;BME280;61816;53.582;10.096;2022-08-01T00:28:55;100993.59;;;18.82;90.06
73551;BME280;61816;53.582;10.096;2022-08-01T00:31:20;101000.16;;;18.94;89.15
73551;BME280;61816;53.582;10.096;2022-08-01T00:33:46;100997.63;;;18.86;89.98
73551;BME280;61816;53.582;10.096;2022-08-01T00:36:11;100986.63;;;18.79;90.31
73551;BME280;61816;53.582;10.096;2022-08-01T00:38:36;100995.91;;;18.72;91.17
73551;BME280;61816;53.582;10.096;2022-08-01T00:41:02;100996.13;;;18.90;89.91
73551;BME280;61816;53.582;10.096;2022-08-01T00:43:28;100995.72;;;18.93;89.73
73551;BME280;61816;53.582;10.096;2022-08-01T00:45:53;100991.69;;;18.89;89.93
73551;BME280;61816;53.582;10.096;2022-08-01T00:48:19;100990.84;;;18.82;90.43
73551;BME280;61816;53.582;10.096;2022-08-01T00:50:44;100993.38;;;18.77;90.75
73551;BME280;61816;53.582;10.096;2022-08-01T00:53:10;100990.44;;;18.78;90.68
73551;BME280;61816;53.582;10.096;2022-08-01T00:55:35;100995.41;;;18.48;91.87
73551;BME280;61816;53.582;10.096;2022-08-01T00:58:00;100994.19;;;18.70;91.52
73551;BME280;61816;53.582;10.096;2022-08-01T01:00:26;100995.00;;;18.64;91.45
73551;BME280;61816;53.582;10.096;2022-08-01T01:02:51;100988.72;;;18.77;91.32
73551;BME280;61816;53.582;10.096;2022-08-01T01:05:17;100997.50;;;18.46;92.45
73551;BME280;61816;53.582;10.096;2022-08-01T01:08:02;100992.13;;;18.73;91.15
73551;BME280;61816;53.582;10.096;2022-08-01T01:10:36;100991.22;;;18.65;91.14
73551;BME280;61816;53.582;10.096;2022-08-01T01:13:46;100986.16;;;18.62;90.70
73551;BME280;61816;53.582;10.096;2022-08-01T01:16:15;100998.44;;;18.66;90.57
73551;BME280;61816;53.582;10.096;2022-08-01T01:18:45;100991.22;;;18.65;90.79
73551;BME280;61816;53.582;10.096;2022-08-01T01:31:50;101006.00;;;18.71;90.01
73551;BME280;61816;53.582;10.096;2022-08-01T01:34:18;101000.53;;;18.78;89.81
73551;BME280;61816;53.582;10.096;2022-08-01T01:36:45;100998.44;;;18.66;90.19
73551;BME280;61816;53.582;10.096;2022-08-01T01:39:14;101000.97;;;18.75;90.92
73551;BME280;61816;53.582;10.096;2022-08-01T01:41:40;100996.25;;;18.55;91.00
73551;BME280;61816;53.582;10.096;2022-08-01T01:44:09;101008.84;;;18.36;92.03
73551;BME280;61816;53.582;10.096;2022-08-01T01:46:35;101005.34;;;18.62;91.38
73551;BME280;61816;53.582;10.096;2022-08-01T01:49:02;101004.69;;;18.47;91.36
73551;BME280;61816;53.582;10.096;2022-08-01T01:51:28;101003.00;;;18.46;91.74
73551;BME280;61816;53.582;10.096;2022-08-01T01:53:55;101007.66;;;18.52;91.07
73551;BME280;61816;53.582;10.096;2022-08-01T01:56:21;101005.09;;;18.57;91.92
73551;BME280;61816;53.582;10.096;2022-08-01T01:58:57;101004.47;;;18.55;91.54
73551;BME280;61816;53.582;10.096;2022-08-01T02:01:24;101009.31;;;18.40;92.44
73551;BME280;61816;53.582;10.096;2022-08-01T02:03:51;101015.19;;;18.43;92.58
73551;BME280;61816;53.582;10.096;2022-08-01T02:06:19;101010.53;;;18.31;92.90
73551;BME280;61816;53.582;10.096;2022-08-01T02:08:46;101009.28;;;18.33;93.20
73551;BME280;61816;53.582;10.096;2022-08-01T02:11:13;101018.53;;;18.26;93.73
73551;BME280;61816;53.582;10.096;2022-08-01T02:14:00;101012.25;;;18.45;93.31
73551;BME280;61816;53.582;10.096;2022-08-01T02:16:29;101015.56;;;18.21;94.26
73551;BME280;61816;53.582;10.096;2022-08-01T02:18:57;101011.00;;;18.41;93.14
73551;BME280;61816;53.582;10.096;2022-08-01T02:21:29;101014.75;;;18.27;93.86
73551;BME280;61816;53.582;10.096;2022-08-01T02:24:01;101016.84;;;18.31;93.10
73551;BME280;61816;53.582;10.096;2022-08-01T02:26:28;101019.41;;;18.33;92.75
73551;BME280;61816;53.582;10.096;2022-08-01T02:28:57;101020.63;;;18.24;93.53
73551;BME280;61816;53.582;10.096;2022-08-01T02:31:24;101018.53;;;18.26;93.57
73551;BME280;61816;53.582;10.096;2022-08-01T02:33:57;101019.84;;;18.43;92.38
73551;BME280;61816;53.582;10.096;2022-08-01T02:36:25;101007.63;;;18.39;93.10
73551;BME280;61816;53.582;10.096;2022-08-01T02:38:53;101010.72;;;18.23;93.70
73551;BME280;61816;53.582;10.096;2022-08-01T02:41:21;101009.31;;;18.40;92.86
73551;BME280;61816;53.582;10.096;2022-08-01T02:43:49;101014.31;;;18.30;92.92
73551;BME280;61816;53.582;10.096;2022-08-01T02:46:23;101013.09;;;18.39;92.58
73551;BME280;61816;53.582;10.096;2022-08-01T02:48:52;101013.50;;;18.36;92.16
73551;BME280;61816;53.582;10.096;2022-08-01T02:51:21;101015.59;;;18.34;93.20
73551;BME280;61816;53.582;10.096;2022-08-01T02:53:50;101022.81;;;18.48;92.04
73551;BME280;61816;53.582;10.096;2022-08-01T02:56:18;101016.91;;;18.58;91.49
73551;BME280;61816;53.582;10.096;2022-08-01T02:58:46;101023.19;;;18.38;91.88
73551;BME280;61816;53.582;10.096;2022-08-01T03:01:14;101029.09;;;18.35;92.01
73551;BME280;61816;53.582;10.096;2022-08-01T03:03:41;101015.59;;;18.34;91.63
73551;BME280;61816;53.582;10.096;2022-08-01T03:06:07;101021.13;;;18.47;91.67
73551;BME280;61816;53.582;10.096;2022-08-01T03:08:34;101026.56;;;18.34;92.12
73551;BME280;61816;53.582;10.096;2022-08-01T03:11:02;101028.25;;;18.35;91.38
73551;BME280;61816;53.582;10.096;2022-08-01T03:13:29;101030.19;;;18.41;91.20
73551;BME280;61816;53.582;10.096;2022-08-01T03:15:55;101037.97;;;18.44;91.17
73551;BME280;61816;53.582;10.096;2022-08-01T03:18:24;101029.59;;;18.52;90.66
73551;BME280;61816;53.582;10.096;2022-08-01T03:20:50;101034.41;;;18.50;90.69
73551;BME280;61816;53.582;10.096;2022-08-01T03:23:18;101027.44;;;18.41;90.95
73551;BME280;61816;53.582;10.096;2022-08-01T03:25:46;101030.41;;;18.39;91.40
73551;BME280;61816;53.582;10.096;2022-08-01T03:28:15;101046.81;;;18.33;91.20
73551;BME280;61816;53.582;10.096;2022-08-01T03:30:42;101045.03;;;18.18;92.33
73551;BME280;61816;53.582;10.096;2022-08-01T03:33:08;101043.03;;;18.34;91.89
73551;BME280;61816;53.582;10.096;2022-08-01T03:35:37;101039.66;;;18.45;90.54
73551;BME280;61816;53.582;10.096;2022-08-01T03:38:05;101041.38;;;18.46;90.53
73551;BME280;61816;53.582;10.096;2022-08-01T03:40:37;101050.19;;;18.35;91.17
73551;BME280;61816;53.582;10.096;2022-08-01T03:43:07;101053.16;;;18.40;91.44
73551;BME280;61816;53.582;10.096;2022-08-01T03:45:41;101052.69;;;18.30;91.12
73551;BME280;61816;53.582;10.096;2022-08-01T03:48:15;101048.91;;;18.31;90.81
73551;BME280;61816;53.582;10.096;2022-08-01T03:50:47;101056.53;;;18.42;90.66
73551;BME280;61816;53.582;10.096;2022-08-01T03:53:14;101051.06;;;18.42;90.39
73551;BME280;61816;53.582;10.096;2022-08-01T03:55:42;101057.78;;;18.33;90.28
73551;BME280;61816;53.582;10.096;2022-08-01T03:58:09;101053.19;;;18.47;90.05
73551;BME280;61816;53.582;10.096;2022-08-01T04:00:39;101054.97;;;18.67;88.81
73551;BME280;61816;53.582;10.096;2022-08-01T04:03:09;101064.16;;;18.47;88.70
73551;BME280;61816;53.582;10.096;2022-08-01T04:05:34;101061.84;;;18.50;89.55
73551;BME280;61816;53.582;10.096;2022-08-01T04:08:00;101060.31;;;18.34;90.08
73551;BME280;61816;53.582;10.096;2022-08-01T04:10:28;101069.56;;;18.27;90.22
73551;BME280;61816;53.582;10.096;2022-08-01T04:12:53;101064.19;;;18.53;89.15
73551;BME280;61816;53.582;10.096;2022-08-01T04:15:19;101081.22;;;18.42;89.20
73551;BME280;61816;53.582;10.096;2022-08-01T04:17:45;101080.34;;;18.35;90.09
73551;BME280;61816;53.582;10.096;2022-08-01T04:20:11;101081.47;;;18.47;90.02
73551;BME280;61816;53.582;10.096;2022-08-01T04:22:37;101082.75;;;18.64;87.98
73551;BME280;61816;53.582;10.096;2022-08-01T04:25:06;101081.56;;;18.67;88.52
73551;BME280;61816;53.582;10.096;2022-08-01T04:27:36;101081.41;;;18.34;89.91
73551;BME280;61816;53.582;10.096;2022-08-01T04:30:03;101092.03;;;18.57;88.81
73551;BME280;61816;53.582;10.096;2022-08-01T04:32:32;101089.09;;;18.58;88.82
73551;BME280;61816;53.582;10.096;2022-08-01T04:34:59;101097.97;;;18.60;88.92
73551;BME280;61816;53.582;10.096;2022-08-01T04:37:27;101105.22;;;18.75;88.45
73551;BME280;61816;53.582;10.096;2022-08-01T04:39:54;101111.50;;;18.68;88.58
73551;BME280;61816;53.582;10.096;2022-08-01T04:42:22;101111.91;;;18.65;89.04
73551;BME280;61816;53.582;10.096;2022-08-01T04:44:47;101120.75;;;18.61;88.91
73551;BME280;61816;53.582;10.096;2022-08-01T04:47:12;101110.88;;;18.66;88.29
73551;BME280;61816;53.582;10.096;2022-08-01T04:49:39;101122.81;;;18.52;88.69
73551;BME280;61816;53.582;10.096;2022-08-01T04:52:05;101114.78;;;18.51;89.27
73551;BME280;61816;53.582;10.096;2022-08-01T04:54:33;101119.34;;;18.37;90.10
73551;BME280;61816;53.582;10.096;2022-08-01T04:57:00;101115.22;;;18.54;89.39
73551;BME280;61816;53.582;10.096;2022-08-01T04:59:26;101118.59;;;18.56;89.38
73551;BME280;61816;53.582;10.096;2022-08-01T05:02:05;101116.00;;;18.35;90.15
73551;BME280;61816;53.582;10.096;2022-08-01T05:04:31;101121.91;;;18.45;89.36
73551;BME280;61816;53.582;10.096;2022-08-01T05:06:56;101120.03;;;18.39;89.85
73551;BME280;61816;53.582;10.096;2022-08-01T05:09:22;101123.13;;;18.29;90.10
73551;BME280;61816;53.582;10.096;2022-08-01T05:11:47;101111.63;;;18.12;91.39
73551;BME280;61816;53.582;10.096;2022-08-01T05:14:12;101122.69;;;18.26;90.90
73551;BME280;61816;53.582;10.096;2022-08-01T05:16:38;101124.63;;;17.97;92.08
73551;BME280;61816;53.582;10.096;2022-08-01T05:19:03;101127.59;;;18.02;92.31
73551;BME280;61816;53.582;10.096;2022-08-01T05:21:28;101122.03;;;17.89;92.48
73551;BME280;61816;53.582;10.096;2022-08-01T05:23:54;101138.84;;;17.86;92.36
73551;BME280;61816;53.582;10.096;2022-08-01T05:26:19;101136.63;;;17.96;92.32
73551;BME280;61816;53.582;10.096;2022-08-01T05:28:44;101129.63;;;18.22;91.41
73551;BME280;61816;53.582;10.096;2022-08-01T05:31:10;101141.31;;;18.02;90.74
73551;BME280;61816;53.582;10.096;2022-08-01T05:33:35;101137.50;;;18.03;91.19
73551;BME280;61816;53.582;10.096;2022-08-01T05:36:01;101138.34;;;18.04;91.37
73551;BME280;61816;53.582;10.096;2022-08-01T05:38:26;101153.88;;;18.25;90.01
73551;BME280;61816;53.582;10.096;2022-08-01T05:40:52;101148.00;;;18.28;89.95
73551;BME280;61816;53.582;10.096;2022-08-01T05:43:17;101153.41;;;18.14;90.06
73551;BME280;61816;53.582;10.096;2022-08-01T05:45:42;101151.53;;;18.22;90.40
73551;BME280;61816;53.582;10.096;2022-08-01T05:48:09;101154.72;;;18.25;90.20
73551;BME280;61816;53.582;10.096;2022-08-01T05:50:35;101157.31;;;18.33;89.66
73551;BME280;61816;53.582;10.096;2022-08-01T05:53:00;101158.16;;;18.34;89.33
73551;BME280;61816;53.582;10.096;2022-08-01T05:55:25;101156.31;;;18.41;89.36
73551;BME280;61816;53.582;10.096;2022-08-01T05:57:51;101161.16;;;18.39;88.72
73551;BME280;61816;53.582;10.096;2022-08-01T06:00:16;101172.50;;;18.36;88.95
73551;BME280;61816;53.582;10.096;2022-08-01T06:02:42;101164.00;;;18.24;89.49
73551;BME280;61816;53.582;10.096;2022-08-01T06:05:08;101166.13;;;18.29;88.63
73551;BME280;61816;53.582;10.096;2022-08-01T06:07:34;101176.59;;;18.18;89.77
73551;BME280;61816;53.582;10.096;2022-08-01T06:09:59;101176.28;;;18.35;88.62
73551;BME280;61816;53.582;10.096;2022-08-01T06:12:24;101180.16;;;18.47;87.80
73551;BME280;61816;53.582;10.096;2022-08-01T06:14:50;101176.69;;;18.32;87.29
73551;BME280;61816;53.582;10.096;2022-08-01T06:17:15;101167.88;;;18.36;87.50
73551;BME280;61816;53.582;10.096;2022-08-01T06:19:40;101168.75;;;18.43;87.86
73551;BME280;61816;53.582;10.096;2022-08-01T06:22:06;101168.09;;;18.41;87.15
73551;BME280;61816;53.582;10.096;2022-08-01T06:24:31;101169.50;;;18.65;86.40
73551;BME280;61816;53.582;10.096;2022-08-01T06:26:56;101176.84;;;18.58;86.84
73551;BME280;61816;53.582;10.096;2022-08-01T06:29:22;101170.47;;;18.51;87.13
73551;BME280;61816;53.582;10.096;2022-08-01T06:31:47;101182.88;;;18.82;86.44
73551;BME280;61816;53.582;10.096;2022-08-01T06:34:12;101187.56;;;18.88;86.32
73551;BME280;61816;53.582;10.096;2022-08-01T06:36:38;101192.13;;;18.67;85.20
73551;BME280;61816;53.582;10.096;2022-08-01T06:39:03;101191.56;;;18.51;86.35
73551;BME280;61816;53.582;10.096;2022-08-01T06:41:28;101200.34;;;18.67;86.56
73551;BME280;61816;53.582;10.096;2022-08-01T06:43:54;101194.16;;;18.59;86.05
73551;BME280;61816;53.582;10.096;2022-08-01T06:46:19;101198.94;;;18.15;87.30
73551;BME280;61816;53.582;10.096;2022-08-01T06:48:44;101196.19;;;18.15;87.44
73551;BME280;61816;53.582;10.096;2022-08-01T06:51:10;101197.53;;;17.98;87.39
73551;BME280;61816;53.582;10.096;2022-08-01T06:53:39;101210.19;;;17.99;87.58
73551;BME280;61816;53.582;10.096;2022-08-01T06:56:05;101206.13;;;18.16;86.12
73551;BME280;61816;53.582;10.096;2022-08-01T06:58:31;101202.81;;;18.28;85.56
73551;BME280;61816;53.582;10.096;2022-08-01T07:00:56;101209.34;;;18.61;85.04
73551;BME280;61816;53.582;10.096;2022-08-01T07:03:22;101208.03;;;18.57;84.58
73551;BME280;61816;53.582;10.096;2022-08-01T07:05:47;101218.09;;;18.43;84.04
73551;BME280;61816;53.582;10.096;2022-08-01T07:08:13;101214.19;;;18.25;84.87
73551;BME280;61816;53.582;10.096;2022-08-01T07:10:38;101220.41;;;18.40;85.03
73551;BME280;61816;53.582;10.096;2022-08-01T07:13:03;101221.97;;;18.56;84.77
73551;BME280;61816;53.582;10.096;2022-08-01T07:15:29;101216.41;;;18.42;84.41
73551;BME280;61816;53.582;10.096;2022-08-01T07:17:54;101214.41;;;18.64;84.68
73551;BME280;61816;53.582;10.096;2022-08-01T07:20:20;101219.78;;;18.73;83.77
73551;BME280;61816;53.582;10.096;2022-08-01T07:22:45;101225.31;;;18.51;84.46
73551;BME280;61816;53.582;10.096;2022-08-01T07:25:11;101229.25;;;18.07;85.09
73551;BME280;61816;53.582;10.096;2022-08-01T07:27:37;101238.00;;;17.96;84.61
73551;BME280;61816;53.582;10.096;2022-08-01T07:30:04;101239.84;;;18.17;84.30
73551;BME280;61816;53.582;10.096;2022-08-01T07:32:30;101253.25;;;18.05;84.10
73551;BME280;61816;53.582;10.096;2022-08-01T07:34:55;101252.41;;;18.05;84.89
73551;BME280;61816;53.582;10.096;2022-08-01T07:37:21;101251.69;;;17.96;84.59
73551;BME280;61816;53.582;10.096;2022-08-01T07:39:46;101249.28;;;17.86;83.89
73551;BME280;61816;53.582;10.096;2022-08-01T07:42:11;101249.72;;;18.11;83.44
73551;BME280;61816;53.582;10.096;2022-08-01T07:44:37;101243.41;;;18.39;81.70
73551;BME280;61816;53.582;10.096;2022-08-01T07:47:04;101253.94;;;18.42;82.03
73551;BME280;61816;53.582;10.096;2022-08-01T07:49:29;101260.31;;;18.49;81.80
73551;BME280;61816;53.582;10.096;2022-08-01T07:51:55;101263.38;;;18.33;82.65
73551;BME280;61816;53.582;10.096;2022-08-01T07:54:21;101263.22;;;18.41;81.41
73551;BME280;61816;53.582;10.096;2022-08-01T07:56:49;101270.88;;;18.46;81.47
73551;BME280;61816;53.582;10.096;2022-08-01T07:59:14;101267.22;;;18.66;81.04
73551;BME280;61816;53.582;10.096;2022-08-01T08:01:40;101279.97;;;18.81;81.43
73551;BME280;61816;53.582;10.096;2022-08-01T08:04:07;101285.78;;;18.99;80.73
73551;BME280;61816;53.582;10.096;2022-08-01T08:06:32;101281.31;;;18.91;79.11
73551;BME280;61816;53.582;10.096;2022-08-01T08:08:57;101294.13;;;18.56;80.23
73551;BME280;61816;53.582;10.096;2022-08-01T08:11:24;101288.88;;;18.89;79.33
73551;BME280;61816;53.582;10.096;2022-08-01T08:13:49;101295.25;;;19.03;78.97
73551;BME280;61816;53.582;10.096;2022-08-01T08:16:15;101300.28;;;18.93;78.84
73551;BME280;61816;53.582;10.096;2022-08-01T08:18:40;101299.34;;;18.73;79.09
73551;BME280;61816;53.582;10.096;2022-08-01T08:21:05;101297.91;;;18.55;78.73
73551;BME280;61816;53.582;10.096;2022-08-01T08:23:31;101301.09;;;18.87;77.81
73551;BME280;61816;53.582;10.096;2022-08-01T08:26:15;101303.25;;;19.39;76.15
73551;BME280;61816;53.582;10.096;2022-08-01T08:28:40;101301.34;;;19.40;75.79
73551;BME280;61816;53.582;10.096;2022-08-01T08:31:06;101307.38;;;19.15;75.59
73551;BME280;61816;53.582;10.096;2022-08-01T08:33:31;101310.69;;;18.69;75.12
73551;BME280;61816;53.582;10.096;2022-08-01T08:35:58;101309.34;;;18.87;76.37
73551;BME280;61816;53.582;10.096;2022-08-01T08:38:23;101315.91;;;18.64;76.69
73551;BME280;61816;53.582;10.096;2022-08-01T08:40:51;101323.25;;;18.57;76.82
73551;BME280;61816;53.582;10.096;2022-08-01T08:43:17;101324.75;;;18.60;76.85
73551;BME280;61816;53.582;10.096;2022-08-01T08:45:44;101320.88;;;18.76;76.60
73551;BME280;61816;53.582;10.096;2022-08-01T08:48:12;101333.69;;;19.03;75.42
73551;BME280;61816;53.582;10.096;2022-08-01T08:50:38;101326.44;;;18.89;75.83
73551;BME280;61816;53.582;10.096;2022-08-01T08:53:03;101343.09;;;18.59;75.87
73551;BME280;61816;53.582;10.096;2022-08-01T08:55:29;101348.50;;;18.03;77.46
73551;BME280;61816;53.582;10.096;2022-08-01T08:57:56;101342.91;;;18.33;77.22
73551;BME280;61816;53.582;10.096;2022-08-01T09:00:21;101350.84;;;18.28;77.21
73551;BME280;61816;53.582;10.096;2022-08-01T09:02:48;101345.75;;;18.25;77.02
73551;BME280;61816;53.582;10.096;2022-08-01T09:05:14;101348.75;;;18.30;76.42
73551;BME280;61816;53.582;10.096;2022-08-01T09:07:42;101346.88;;;18.80;75.12
73551;BME280;61816;53.582;10.096;2022-08-01T09:10:07;101349.03;;;19.25;72.89
73551;BME280;61816;53.582;10.096;2022-08-01T09:12:34;101352.19;;;19.70;70.39
73551;BME280;61816;53.582;10.096;2022-08-01T09:14:59;101355.22;;;19.89;68.47
73551;BME280;61816;53.582;10.096;2022-08-01T09:17:25;101361.19;;;20.25;67.20
73551;BME280;61816;53.582;10.096;2022-08-01T09:19:52;101360.38;;;20.58;66.22
73551;BME280;61816;53.582;10.096;2022-08-01T09:22:20;101357.34;;;20.99;64.43
73551;BME280;61816;53.582;10.096;2022-08-01T09:25:09;101363.44;;;21.34;63.38
73551;BME280;61816;53.582;10.096;2022-08-01T09:27:37;101373.91;;;20.79;64.44
73551;BME280;61816;53.582;10.096;2022-08-01T09:32:59;101375.09;;;19.91;65.35
73551;BME280;61816;53.582;10.096;2022-08-01T09:35:30;101373.84;;;20.13;64.61
73551;BME280;61816;53.582;10.096;2022-08-01T09:38:20;101374.97;;;20.78;61.71
73551;BME280;61816;53.582;10.096;2022-08-01T09:40:46;101385.97;;;20.52;60.95
73551;BME280;61816;53.582;10.096;2022-08-01T09:43:12;101375.63;;;20.80;61.24
73551;BME280;61816;53.582;10.096;2022-08-01T09:45:38;101375.19;;;20.64;61.13
73551;BME280;61816;53.582;10.096;2022-08-01T09:48:07;101373.50;;;20.63;61.53
73551;BME280;61816;53.582;10.096;2022-08-01T09:50:41;101392.13;;;20.54;61.92
73551;BME280;61816;53.582;10.096;2022-08-01T09:53:07;101390.41;;;20.79;61.59
73551;BME280;61816;53.582;10.096;2022-08-01T09:55:33;101378.34;;;21.00;59.62
73551;BME280;61816;53.582;10.096;2022-08-01T09:57:59;101393.59;;;20.50;59.31
73551;BME280;61816;53.582;10.096;2022-08-01T10:00:26;101393.78;;;21.01;58.32
73551;BME280;61816;53.582;10.096;2022-08-01T10:02:52;101389.16;;;20.62;59.60
73551;BME280;61816;53.582;10.096;2022-08-01T10:05:17;101386.59;;;21.07;57.96
73551;BME280;61816;53.582;10.096;2022-08-01T10:07:59;101397.50;;;21.47;56.41
73551;BME280;61816;53.582;10.096;2022-08-01T10:10:26;101389.88;;;21.49;56.27
73551;BME280;61816;53.582;10.096;2022-08-01T10:12:52;101388.38;;;21.98;55.16
73551;BME280;61816;53.582;10.096;2022-08-01T10:15:18;101387.88;;;22.14;54.77
73551;BME280;61816;53.582;10.096;2022-08-01T10:18:06;101393.41;;;22.07;54.23
73551;BME280;61816;53.582;10.096;2022-08-01T10:20:33;101393.09;;;22.54;54.13
73551;BME280;61816;53.582;10.096;2022-08-01T10:23:01;101395.44;;;22.25;54.75
73551;BME280;61816;53.582;10.096;2022-08-01T10:25:29;101401.22;;;21.72;55.83
73551;BME280;61816;53.582;10.096;2022-08-01T10:27:59;101393.38;;;22.14;55.17
73551;BME280;61816;53.582;10.096;2022-08-01T10:30:26;101394.19;;;22.21;52.62
73551;BME280;61816;53.582;10.096;2022-08-01T10:32:54;101413.91;;;21.80;54.24
73551;BME280;61816;53.582;10.096;2022-08-01T10:35:21;101401.34;;;21.46;55.86
73551;BME280;61816;53.582;10.096;2022-08-01T10:37:46;101393.44;;;22.01;56.15
73551;BME280;61816;53.582;10.096;2022-08-01T10:40:13;101398.22;;;21.80;55.83
73551;BME280;61816;53.582;10.096;2022-08-01T10:42:41;101400.59;;;22.15;54.76
73551;BME280;61816;53.582;10.096;2022-08-01T10:45:09;101397.50;;;21.47;55.23
73551;BME280;61816;53.582;10.096;2022-08-01T10:50:45;101403.91;;;22.30;52.43
73551;BME280;61816;53.582;10.096;2022-08-01T10:53:17;101408.59;;;21.85;52.73
73551;BME280;61816;53.582;10.096;2022-08-01T10:55:48;101406.59;;;22.62;52.11
73551;BME280;61816;53.582;10.096;2022-08-01T10:58:20;101404.00;;;22.17;52.85
73551;BME280;61816;53.582;10.096;2022-08-01T11:00:46;101418.00;;;22.72;49.85
73551;BME280;61816;53.582;10.096;2022-08-01T11:03:11;101402.78;;;22.00;51.84
73551;BME280;61816;53.582;10.096;2022-08-01T11:05:36;101418.44;;;22.06;52.87
73551;BME280;61816;53.582;10.096;2022-08-01T11:08:09;101403.91;;;21.85;52.71
73551;BME280;61816;53.582;10.096;2022-08-01T11:10:40;101420.38;;;22.93;50.36
73551;BME280;61816;53.582;10.096;2022-08-01T11:13:06;101418.56;;;23.06;48.62
73551;BME280;61816;53.582;10.096;2022-08-01T11:15:40;101406.44;;;23.07;49.19
73551;BME280;61816;53.582;10.096;2022-08-01T11:20:58;101416.22;;;23.27;50.28
73551;BME280;61816;53.582;10.096;2022-08-01T11:23:24;101423.28;;;22.48;51.30
73551;BME280;61816;53.582;10.096;2022-08-01T11:30:48;101410.16;;;23.37;48.11
73551;BME280;61816;53.582;10.096;2022-08-01T11:33:16;101416.28;;;23.21;48.69
73551;BME280;61816;53.582;10.096;2022-08-01T11:41:29;101415.53;;;23.50;46.87
73551;BME280;61816;53.582;10.096;2022-08-01T11:47:06;101415.53;;;22.64;48.52
73551;BME280;61816;53.582;10.096;2022-08-01T11:52:19;101432.16;;;23.07;46.66
73551;BME280;61816;53.582;10.096;2022-08-01T11:54:50;101422.28;;;23.18;47.39
73551;BME280;61816;53.582;10.096;2022-08-01T11:59:48;101434.94;;;24.29;42.39
73551;BME280;61816;53.582;10.096;2022-08-01T12:02:39;101421.06;;;23.50;45.22
73551;BME280;61816;53.582;10.096;2022-08-01T12:05:07;101440.88;;;22.79;46.99
73551;BME280;61816;53.582;10.096;2022-08-01T12:07:34;101439.47;;;23.38;46.62
73551;BME280;61816;53.582;10.096;2022-08-01T12:12:34;101440.56;;;23.55;46.91
73551;BME280;61816;53.582;10.096;2022-08-01T12:15:02;101446.25;;;23.42;45.68
73551;BME280;61816;53.582;10.096;2022-08-01T12:17:36;101437.94;;;23.24;44.21
73551;BME280;61816;53.582;10.096;2022-08-01T12:20:13;101443.66;;;23.47;43.61
73551;BME280;61816;53.582;10.096;2022-08-01T12:22:39;101463.91;;;23.60;42.83
73551;BME280;61816;53.582;10.096;2022-08-01T12:25:16;101438.19;;;23.77;43.13
73551;BME280;61816;53.582;10.096;2022-08-01T12:27:45;101449.94;;;23.73;43.76
73551;BME280;61816;53.582;10.096;2022-08-01T12:30:15;101452.28;;;23.76;43.58
73551;BME280;61816;53.582;10.096;2022-08-01T12:32:43;101462.03;;;23.17;42.37
73551;BME280;61816;53.582;10.096;2022-08-01T12:35:11;101471.72;;;22.44;44.28
73551;BME280;61816;53.582;10.096;2022-08-01T12:37:47;101460.41;;;23.09;43.24
73551;BME280;61816;53.582;10.096;2022-08-01T12:40:23;101457.72;;;23.02;42.14
73551;BME280;61816;53.582;10.096;2022-08-01T12:42:53;101454.44;;;22.87;43.78
73551;BME280;61816;53.582;10.096;2022-08-01T12:45:21;101465.69;;;23.11;44.29
73551;BME280;61816;53.582;10.096;2022-08-01T12:47:48;101461.16;;;23.41;44.20
73551;BME280;61816;53.582;10.096;2022-08-01T12:50:21;101471.44;;;22.84;44.27
73551;BME280;61816;53.582;10.096;2022-08-01T12:52:48;101450.25;;;23.28;44.62
73551;BME280;61816;53.582;10.096;2022-08-01T12:55:21;101453.91;;;23.40;42.30
73551;BME280;61816;53.582;10.096;2022-08-01T12:58:03;101446.84;;;23.26;43.40
73551;BME280;61816;53.582;10.096;2022-08-01T13:00:30;101461.84;;;23.12;43.26
73551;BME280;61816;53.582;10.096;2022-08-01T13:05:50;101446.19;;;23.06;44.62
73551;BME280;61816;53.582;10.096;2022-08-01T13:08:18;101437.28;;;22.79;44.27
73551;BME280;61816;53.582;10.096;2022-08-01T13:10:44;101449.47;;;23.58;42.62
73551;BME280;61816;53.582;10.096;2022-08-01T13:13:10;101452.72;;;23.73;42.24
73551;BME280;61816;53.582;10.096;2022-08-01T13:15:38;101457.41;;;24.39;41.58
73551;BME280;61816;53.582;10.096;2022-08-01T13:18:34;101449.03;;;23.61;43.25
73551;BME280;61816;53.582;10.096;2022-08-01T13:21:25;101451.28;;;23.09;44.53
73551;BME280;61816;53.582;10.096;2022-08-01T13:24:05;101440.66;;;23.06;43.74
73551;BME280;61816;53.582;10.096;2022-08-01T13:29:08;101454.44;;;22.87;43.08
73551;BME280;61816;53.582;10.096;2022-08-01T13:31:35;101446.81;;;23.69;41.20